createdAt,value
2022-10-23T00:01:51.338Z,98960.66
2022-10-23T00:04:22.096Z,98960.33
2022-10-23T00:06:51.586Z,98963.29
2022-10-23T00:09:23.554Z,98967.09
2022-10-23T00:11:52.866Z,98969.02
2022-10-23T00:14:24.926Z,98964.84
2022-10-23T00:16:54.033Z,98963.80
2022-10-23T00:19:22.477Z,98968.48
2022-10-23T00:21:51.339Z,98967.77
2022-10-23T00:24:20.278Z,98965.78
2022-10-23T00:26:51.235Z,98969.23
2022-10-23T00:29:19.895Z,98969.91
2022-10-23T00:31:48.554Z,98973.02
2022-10-23T00:34:19.794Z,98974.58
2022-10-23T00:36:48.594Z,98976.63
2022-10-23T00:39:18.031Z,98978.02
2022-10-23T00:41:46.526Z,98978.52
2022-10-23T00:44:18.771Z,98975.41
2022-10-23T00:46:47.730Z,98979.77
2022-10-23T00:49:17.124Z,98983.09
2022-10-23T00:51:51.067Z,98982.94
2022-10-23T00:54:25.114Z,98976.66
2022-10-23T00:56:59.860Z,98979.77
2022-10-23T00:59:30.111Z,98984.62
2022-10-23T01:01:59.698Z,98986.33
2022-10-23T01:04:29.569Z,98985.59
2022-10-23T01:06:58.645Z,98989.39
2022-10-23T01:09:27.496Z,98993.87
2022-10-23T01:12:15.078Z,98995.38
2022-10-23T01:15:04.040Z,98998.11
2022-10-23T01:18:17.365Z,99000.70
2022-10-23T01:21:04.307Z,99000.52
2022-10-23T01:23:48.515Z,99003.81
2022-10-23T01:26:29.694Z,99008.00
2022-10-23T01:29:20.546Z,99009.44
2022-10-23T01:31:56.445Z,99014.27
2022-10-23T01:34:47.636Z,99016.49
2022-10-23T01:37:23.636Z,99015.92
2022-10-23T01:39:55.553Z,99016.60
2022-10-23T01:42:30.727Z,99012.59
2022-10-23T01:45:17.056Z,99013.83
2022-10-23T01:47:45.951Z,99018.37
2022-10-23T01:50:19.538Z,99020.27
2022-10-23T01:52:49.901Z,99020.06
2022-10-23T01:55:19.056Z,99022.44
2022-10-23T01:57:49.583Z,99025.15
2022-10-23T02:00:20.357Z,99020.80
2022-10-23T02:02:56.693Z,99021.18
2022-10-23T02:05:31.635Z,99024.35
2022-10-23T02:08:02.074Z,99027.05
2022-10-23T02:10:59.845Z,99023.67
2022-10-23T02:13:52.105Z,99022.36
2022-10-23T02:16:37.439Z,99014.29
2022-10-23T02:19:44.334Z,99013.11
2022-10-23T02:22:34.065Z,99010.02
2022-10-23T02:25:13.972Z,99007.23
2022-10-23T02:27:48.210Z,99007.38
2022-10-23T02:30:19.809Z,99006.86
2022-10-23T02:32:55.825Z,99004.23
2022-10-23T02:35:25.638Z,99004.56
2022-10-23T02:38:01.997Z,99005.06
2022-10-23T02:40:42.437Z,99002.06
2022-10-23T02:43:36.183Z,99009.64
2022-10-23T02:46:42.110Z,99012.23
2022-10-23T02:49:26.176Z,99013.21
2022-10-23T02:52:12.368Z,99015.77
2022-10-23T02:55:08.832Z,99012.67
2022-10-23T02:58:00.314Z,99013.02
2022-10-23T03:00:31.717Z,99016.10
2022-10-23T03:03:12.165Z,99013.48
2022-10-23T03:05:45.253Z,99017.31
2022-10-23T03:08:16.049Z,99020.45
2022-10-23T03:10:45.179Z,99022.92
2022-10-23T03:13:13.712Z,99021.53
2022-10-23T03:15:44.567Z,99022.92
2022-10-23T03:18:15.369Z,99022.73
2022-10-23T03:20:48.805Z,99024.79
2022-10-23T03:23:17.423Z,99021.85
2022-10-23T03:25:45.779Z,99021.52
2022-10-23T03:28:25.991Z,99013.23
2022-10-23T03:30:54.451Z,99017.09
2022-10-23T03:33:23.376Z,99016.91
2022-10-23T03:35:52.768Z,99015.48
2022-10-23T03:38:21.618Z,99010.27
2022-10-23T03:40:50.181Z,99007.64
2022-10-23T03:43:19.145Z,99007.95
2022-10-23T03:45:47.970Z,99004.98
2022-10-23T03:48:17.657Z,99004.99
2022-10-23T03:50:46.621Z,99005.01
2022-10-23T03:53:15.244Z,99005.70
2022-10-23T03:55:45.064Z,99002.77
2022-10-23T03:58:14.248Z,98999.28
2022-10-23T04:03:16.941Z,98995.20
2022-10-23T04:05:45.529Z,98995.55
2022-10-23T04:08:17.618Z,98992.44
2022-10-23T04:10:51.993Z,98989.19
2022-10-23T04:13:25.262Z,98990.59
2022-10-23T04:15:54.607Z,98990.23
2022-10-23T04:18:25.010Z,98992.67
2022-10-23T04:20:53.945Z,98993.20
2022-10-23T04:23:24.319Z,98996.38
2022-10-23T04:25:56.637Z,98996.95
2022-10-23T04:28:26.739Z,98993.04
2022-10-23T04:30:56.806Z,98996.34
2022-10-23T04:33:25.935Z,99003.95
2022-10-23T04:35:54.908Z,99001.30
2022-10-23T04:38:23.837Z,99003.87
2022-10-23T04:40:52.826Z,99003.52
2022-10-23T04:43:25.191Z,99003.92
2022-10-23T04:45:53.696Z,99007.58
2022-10-23T04:48:25.577Z,99009.34
2022-10-23T04:51:16.122Z,99008.64
2022-10-23T04:54:14.048Z,99010.34
2022-10-23T04:57:08.788Z,99008.23
2022-10-23T04:59:54.336Z,99011.30
2022-10-23T05:02:24.915Z,99010.89
2022-10-23T05:04:54.466Z,99012.76
2022-10-23T05:07:50.170Z,99015.88
2022-10-23T05:10:30.630Z,99020.05
2022-10-23T05:13:20.965Z,99025.45
2022-10-23T05:15:51.455Z,99031.34
2022-10-23T05:18:45.617Z,99027.17
2022-10-23T05:21:22.028Z,99020.45
2022-10-23T05:23:53.282Z,99019.33
2022-10-23T05:26:22.865Z,99019.56
2022-10-23T05:28:54.160Z,99015.81
2022-10-23T05:31:25.551Z,99006.32
2022-10-23T05:33:57.440Z,99001.82
2022-10-23T05:36:27.728Z,99001.61
2022-10-23T05:38:59.645Z,99004.41
2022-10-23T05:41:28.902Z,99000.63
2022-10-23T05:44:00.213Z,99001.57
2022-10-23T05:46:55.519Z,99011.17
2022-10-23T05:49:44.477Z,99015.19
2022-10-23T05:52:33.073Z,99018.01
2022-10-23T05:55:08.069Z,99015.80
2022-10-23T05:57:56.387Z,99011.87
2022-10-23T06:00:48.145Z,99007.94
2022-10-23T06:03:38.075Z,99009.94
2022-10-23T06:06:08.246Z,99011.77
2022-10-23T06:08:45.084Z,99016.16
2022-10-23T06:11:15.625Z,99025.59
2022-10-23T06:13:50.064Z,99028.05
2022-10-23T06:16:25.769Z,99022.36
2022-10-23T06:18:55.999Z,99024.48
2022-10-23T06:21:27.536Z,99030.78
2022-10-23T06:23:57.060Z,99031.70
2022-10-23T06:26:32.873Z,99031.71
2022-10-23T06:29:10.204Z,99035.21
2022-10-23T06:31:39.525Z,99038.19
2022-10-23T06:34:12.184Z,99038.94
2022-10-23T06:36:41.458Z,99036.46
2022-10-23T06:39:28.478Z,99040.53
2022-10-23T06:42:15.393Z,99046.27
2022-10-23T06:44:57.502Z,99048.77
2022-10-23T06:47:55.360Z,99044.50
2022-10-23T06:50:42.942Z,99043.63
2022-10-23T06:53:16.846Z,99041.84
2022-10-23T06:55:52.976Z,99039.33
2022-10-23T06:58:28.194Z,99038.57
2022-10-23T07:01:15.049Z,99043.63
2022-10-23T07:03:45.372Z,99045.89
2022-10-23T07:06:15.667Z,99048.59
2022-10-23T07:08:44.335Z,99050.40
2022-10-23T07:11:31.741Z,99051.95
2022-10-23T07:14:00.400Z,99052.63
2022-10-23T07:17:26.026Z,99055.55
2022-10-23T07:20:13.808Z,99052.41
2022-10-23T07:22:42.857Z,99056.59
2022-10-23T07:25:17.133Z,99060.18
2022-10-23T07:27:47.087Z,99060.30
2022-10-23T07:30:16.932Z,99054.79
2022-10-23T07:32:49.849Z,99045.19
2022-10-23T07:35:42.741Z,99052.79
2022-10-23T07:38:14.477Z,99057.02
2022-10-23T07:40:49.730Z,99059.98
2022-10-23T07:43:21.546Z,99060.80
2022-10-23T07:45:50.615Z,99066.58
2022-10-23T07:48:25.539Z,99073.05
2022-10-23T07:51:02.088Z,99073.53
2022-10-23T07:53:32.947Z,99074.75
2022-10-23T07:56:17.893Z,99077.90
2022-10-23T07:59:13.898Z,99072.82
2022-10-23T08:01:44.076Z,99070.50
2022-10-23T08:04:13.330Z,99078.75
2022-10-23T08:06:53.240Z,99077.85
2022-10-23T08:09:23.027Z,99076.27
2022-10-23T08:11:51.933Z,99077.46
2022-10-23T08:14:21.443Z,99076.05
2022-10-23T08:16:51.025Z,99078.89
2022-10-23T08:19:19.769Z,99080.82
2022-10-23T08:21:49.804Z,99082.60
2022-10-23T08:24:19.133Z,99079.41
2022-10-23T08:26:51.015Z,99073.76
2022-10-23T08:29:21.925Z,99072.70
2022-10-23T08:31:56.573Z,99069.95
2022-10-23T08:34:38.321Z,99076.33
2022-10-23T08:37:07.450Z,99079.34
2022-10-23T08:39:36.965Z,99077.83
2022-10-23T08:42:25.032Z,99087.04
2022-10-23T08:45:07.489Z,99088.65
2022-10-23T08:47:55.050Z,99088.77
2022-10-23T08:50:54.708Z,99085.90
2022-10-23T08:53:47.434Z,99092.41
2022-10-23T08:56:29.110Z,99089.56
2022-10-23T08:59:23.430Z,99086.89
2022-10-23T09:02:13.775Z,99084.44
2022-10-23T09:04:48.204Z,99078.58
2022-10-23T09:07:16.830Z,99079.15
2022-10-23T09:09:51.848Z,99079.66
2022-10-23T09:12:28.472Z,99080.52
2022-10-23T09:15:21.719Z,99077.77
2022-10-23T09:17:58.970Z,99081.05
2022-10-23T09:20:38.290Z,99080.91
2022-10-23T09:23:18.897Z,99081.72
2022-10-23T09:25:57.261Z,99082.54
2022-10-23T09:28:32.692Z,99083.02
2022-10-23T09:31:10.121Z,99082.23
2022-10-23T09:33:40.286Z,99081.73
2022-10-23T09:36:14.346Z,99081.03
2022-10-23T09:38:46.053Z,99082.73
2022-10-23T09:41:21.304Z,99083.89
2022-10-23T09:44:09.211Z,99085.09
2022-10-23T09:46:42.390Z,99081.04
2022-10-23T09:49:29.135Z,99084.27
2022-10-23T09:52:02.304Z,99085.38
2022-10-23T09:54:34.219Z,99085.10
2022-10-23T09:57:34.730Z,99082.23
2022-10-23T10:00:07.063Z,99086.41
2022-10-23T10:02:44.733Z,99087.95
2022-10-23T10:05:41.501Z,99082.80
2022-10-23T10:08:25.417Z,99081.13
2022-10-23T10:11:39.897Z,99079.08
2022-10-23T10:14:36.628Z,99074.19
2022-10-23T10:17:34.034Z,99069.27
2022-10-23T10:20:23.890Z,99065.36
2022-10-23T10:23:19.769Z,99063.64
2022-10-23T10:25:59.949Z,99059.23
2022-10-23T10:29:14.082Z,99056.13
2022-10-23T10:31:43.014Z,99052.08
2022-10-23T10:34:41.349Z,99046.17
2022-10-23T10:37:38.967Z,99046.08
2022-10-23T10:40:30.198Z,99046.13
2022-10-23T10:43:23.221Z,99044.55
2022-10-23T10:46:06.390Z,99033.20
2022-10-23T10:49:02.774Z,99030.64
2022-10-23T10:52:05.390Z,99023.20
2022-10-23T10:54:56.383Z,99021.02
2022-10-23T10:57:57.955Z,99030.66
2022-10-23T11:00:32.151Z,99035.85
2022-10-23T11:03:33.830Z,99034.90
2022-10-23T11:06:11.168Z,99030.45
2022-10-23T11:08:56.341Z,99027.79
2022-10-23T11:11:35.956Z,99032.19
2022-10-23T11:14:04.900Z,99027.97
2022-10-23T11:16:37.755Z,99021.83
2022-10-23T11:19:16.998Z,99014.34
2022-10-23T11:21:52.184Z,99007.89
2022-10-23T11:25:12.608Z,99001.08
2022-10-23T11:27:54.198Z,98990.27
2022-10-23T11:30:25.799Z,98987.27
2022-10-23T11:33:32.610Z,98989.88
2022-10-23T11:36:16.874Z,98991.98
2022-10-23T11:38:51.997Z,98992.48
2022-10-23T11:41:27.189Z,98985.60
2022-10-23T11:44:06.589Z,98982.73
2022-10-23T11:46:39.441Z,98975.45
2022-10-23T11:49:22.637Z,98969.17
2022-10-23T11:52:01.340Z,98957.17
2022-10-23T11:54:30.703Z,98949.10
2022-10-23T11:57:17.161Z,98942.97
2022-10-23T11:59:46.144Z,98939.80
2022-10-23T12:02:34.820Z,98938.72
2022-10-23T12:05:31.514Z,98935.50
2022-10-23T12:08:03.405Z,98935.81
2022-10-23T12:10:44.315Z,98939.23
2022-10-23T12:13:38.184Z,98936.40
2022-10-23T12:16:11.072Z,98931.95
2022-10-23T12:19:32.285Z,98927.76
2022-10-23T12:22:02.844Z,98923.55
2022-10-23T12:24:40.412Z,98923.98
2022-10-23T12:27:19.807Z,98922.48
2022-10-23T12:30:14.360Z,98919.59
2022-10-23T12:32:59.230Z,98919.88
2022-10-23T12:36:10.028Z,98916.95
2022-10-23T12:38:49.022Z,98908.89
2022-10-23T12:41:25.778Z,98902.56
2022-10-23T12:44:04.514Z,98899.50
2022-10-23T12:46:37.438Z,98896.10
2022-10-23T12:49:15.985Z,98901.11
2022-10-23T12:51:45.022Z,98897.23
2022-10-23T12:54:17.523Z,98893.48
2022-10-23T12:56:47.643Z,98883.95
2022-10-23T12:59:26.820Z,98881.95
2022-10-23T13:01:57.135Z,98880.33
2022-10-23T13:04:35.676Z,98881.16
2022-10-23T13:07:04.918Z,98877.92
2022-10-23T13:09:41.400Z,98874.17
2022-10-23T13:12:30.539Z,98873.39
2022-10-23T13:15:07.591Z,98867.33
2022-10-23T13:17:36.282Z,98866.84
2022-10-23T13:20:16.989Z,98866.69
2022-10-23T13:22:50.432Z,98860.60
2022-10-23T13:25:35.009Z,98862.91
2022-10-23T13:28:35.836Z,98865.76
2022-10-23T13:31:11.544Z,98868.42
2022-10-23T13:33:42.943Z,98868.11
2022-10-23T13:36:15.599Z,98872.89
2022-10-23T13:38:47.039Z,98872.75
2022-10-23T13:41:20.866Z,98868.41
2022-10-23T13:43:49.562Z,98859.52
2022-10-23T13:46:23.976Z,98860.76
2022-10-23T13:48:53.189Z,98861.80
2022-10-23T13:51:38.776Z,98859.87
2022-10-23T13:57:00.594Z,98851.92
2022-10-23T13:59:29.255Z,98849.43
2022-10-23T14:01:58.418Z,98846.09
2022-10-23T14:04:28.010Z,98844.73
2022-10-23T14:06:58.775Z,98840.75
2022-10-23T14:09:27.509Z,98844.81
2022-10-23T14:11:57.281Z,98838.20
2022-10-23T14:14:26.121Z,98834.37
2022-10-23T14:16:56.638Z,98830.03
2022-10-23T14:19:34.971Z,98830.73
2022-10-23T14:22:03.686Z,98831.61
2022-10-23T14:24:32.438Z,98829.15
2022-10-23T14:27:01.494Z,98829.68
2022-10-23T14:29:30.234Z,98827.08
2022-10-23T14:31:59.346Z,98820.66
2022-10-23T14:34:28.677Z,98816.53
2022-10-23T14:37:08.195Z,98815.73
2022-10-23T14:39:37.958Z,98812.52
2022-10-23T14:42:06.597Z,98809.63
2022-10-23T14:44:36.286Z,98810.59
2022-10-23T14:47:06.622Z,98811.16
2022-10-23T14:49:36.027Z,98808.95
2022-10-23T14:52:04.800Z,98806.57
2022-10-23T14:54:35.902Z,98803.14
2022-10-23T14:57:06.254Z,98800.74
2022-10-23T14:59:35.188Z,98796.09
2022-10-23T15:02:04.528Z,98798.08
2022-10-23T15:04:33.180Z,98794.98
2022-10-23T15:07:02.220Z,98799.77
2022-10-23T15:09:37.393Z,98799.70
2022-10-23T15:12:07.882Z,98802.74
2022-10-23T15:14:36.907Z,98799.13
2022-10-23T15:17:05.844Z,98799.69
2022-10-23T15:19:35.061Z,98796.23
2022-10-23T15:22:03.774Z,98796.23
2022-10-23T15:24:33.048Z,98799.95
2022-10-23T15:27:02.460Z,98808.36
2022-10-23T15:29:31.231Z,98807.02
2022-10-23T15:32:02.077Z,98811.09
2022-10-23T15:34:32.932Z,98813.41
2022-10-23T15:37:03.136Z,98816.09
2022-10-23T15:39:36.020Z,98816.11
2022-10-23T15:42:06.868Z,98817.00
2022-10-23T15:44:35.864Z,98814.73
2022-10-23T15:47:16.387Z,98816.65
2022-10-23T15:49:46.963Z,98814.94
2022-10-23T15:52:15.661Z,98814.63
2022-10-23T15:54:48.867Z,98813.79
2022-10-23T15:57:17.889Z,98816.98
2022-10-23T15:59:47.230Z,98816.67
2022-10-23T16:02:16.087Z,98819.50
2022-10-23T16:04:45.062Z,98820.04
2022-10-23T16:07:15.012Z,98820.05
2022-10-23T16:09:43.766Z,98817.80
2022-10-23T16:12:12.873Z,98817.14
2022-10-23T16:14:42.115Z,98811.40
2022-10-23T16:17:11.825Z,98808.65
2022-10-23T16:19:41.287Z,98802.21
2022-10-23T16:22:10.317Z,98796.48
2022-10-23T16:24:39.587Z,98788.28
2022-10-23T16:27:10.347Z,98784.46
2022-10-23T16:29:39.964Z,98787.27
2022-10-23T16:32:08.558Z,98789.90
2022-10-23T16:34:37.883Z,98786.09
2022-10-23T16:37:06.785Z,98790.48
2022-10-23T16:39:52.972Z,98790.48
2022-10-23T16:42:42.562Z,98789.61
2022-10-23T16:45:21.499Z,98787.02
2022-10-23T16:47:51.671Z,98782.16
2022-10-23T16:50:21.389Z,98780.09
2022-10-23T16:52:53.271Z,98779.23
2022-10-23T16:55:25.121Z,98774.23
2022-10-23T16:57:54.227Z,98774.78
2022-10-23T17:00:23.603Z,98776.38
2022-10-23T17:06:30.559Z,98786.70
2022-10-23T17:12:49.531Z,98793.58
2022-10-23T17:15:52.159Z,98787.31
2022-10-23T17:19:51.067Z,98789.41
2022-10-23T17:23:34.193Z,98794.80
2022-10-23T17:26:13.163Z,98790.95
2022-10-23T17:29:07.311Z,98786.05
2022-10-23T17:38:54.476Z,98761.64
2022-10-23T17:42:09.798Z,98760.60
2022-10-23T17:45:00.423Z,98759.88
2022-10-23T17:54:50.628Z,98746.33
2022-10-23T18:01:22.382Z,98741.66
2022-10-23T18:04:21.598Z,98741.16
2022-10-23T18:10:10.508Z,98737.02
2022-10-23T18:13:09.962Z,98735.63
2022-10-23T18:16:34.165Z,98734.58
2022-10-23T18:22:50.461Z,98735.78
2022-10-23T18:29:26.514Z,98718.00
2022-10-23T18:35:50.653Z,98717.36
2022-10-23T18:41:57.602Z,98706.56
2022-10-23T18:45:03.160Z,98701.48
2022-10-23T18:54:17.086Z,98689.98
2022-10-23T18:57:38.772Z,98681.11
2022-10-23T19:00:50.077Z,98681.46
2022-10-23T19:03:51.094Z,98683.91
2022-10-23T19:06:57.050Z,98687.77
2022-10-23T19:13:00.771Z,98684.70
2022-10-23T19:22:26.441Z,98675.01
2022-10-23T19:25:45.439Z,98671.69
2022-10-23T19:32:16.448Z,98666.14
2022-10-23T19:35:37.911Z,98659.56
2022-10-23T19:38:40.106Z,98652.77
2022-10-23T19:41:56.129Z,98650.13
2022-10-23T19:44:59.112Z,98648.19
2022-10-23T19:47:52.442Z,98649.91
2022-10-23T19:51:13.458Z,98651.48
2022-10-23T19:54:21.408Z,98649.75
2022-10-23T19:57:37.687Z,98639.80
2022-10-23T20:00:51.436Z,98629.89
2022-10-23T20:03:57.800Z,98624.66
2022-10-23T20:07:21.874Z,98619.94
2022-10-23T20:10:21.574Z,98623.08
2022-10-23T20:16:42.869Z,98625.11
2022-10-23T20:22:57.099Z,98612.01
2022-10-23T20:26:01.305Z,98596.99
2022-10-23T20:29:11.229Z,98595.75
2022-10-23T20:32:24.537Z,98596.27
2022-10-23T20:35:39.035Z,98593.84
2022-10-23T20:38:38.014Z,98598.71
2022-10-23T20:41:47.626Z,98603.42
2022-10-23T20:44:51.678Z,98600.98
2022-10-23T20:47:59.744Z,98595.76
2022-10-23T20:51:34.798Z,98602.54
2022-10-23T20:58:10.380Z,98609.56
2022-10-23T21:04:47.160Z,98597.25
2022-10-23T21:07:54.309Z,98583.52
2022-10-23T21:11:07.798Z,98580.58
2022-10-23T21:17:42.877Z,98565.98
2022-10-23T21:23:35.227Z,98551.32
2022-10-23T21:29:39.078Z,98562.04
2022-10-23T21:32:43.207Z,98546.36
2022-10-23T21:35:34.063Z,98533.81
2022-10-23T21:41:49.744Z,98531.20
2022-10-23T21:44:39.857Z,98530.67
2022-10-23T21:47:31.281Z,98528.42
2022-10-23T21:57:35.546Z,98527.95
2022-10-23T22:00:57.003Z,98516.48
2022-10-23T22:03:59.942Z,98505.16
2022-10-23T22:06:45.733Z,98498.05
2022-10-23T22:13:16.898Z,98497.60
2022-10-23T22:16:21.390Z,98496.05
2022-10-23T22:22:39.763Z,98500.77
2022-10-23T22:28:39.270Z,98507.07
2022-10-23T22:34:56.258Z,98499.58
2022-10-23T22:41:32.172Z,98503.27
2022-10-23T22:51:20.287Z,98508.08
2022-10-23T22:54:04.319Z,98520.43
2022-10-23T22:57:12.427Z,98517.30
2022-10-23T23:00:01.458Z,98515.73
2022-10-23T23:03:03.314Z,98514.84
2022-10-23T23:06:55.080Z,98510.72
2022-10-23T23:13:23.013Z,98516.05
2022-10-23T23:16:43.032Z,98513.77
2022-10-23T23:22:56.839Z,98516.52
2022-10-23T23:26:05.740Z,98519.28
2022-10-23T23:29:01.206Z,98517.34
2022-10-23T23:31:50.168Z,98526.22
2022-10-23T23:34:38.577Z,98531.30
2022-10-23T23:37:37.332Z,98553.27
2022-10-23T23:40:29.212Z,98567.75
2022-10-23T23:43:24.541Z,98575.95
2022-10-23T23:49:19.431Z,98587.77
2022-10-23T23:51:46.663Z,98594.56
2022-10-23T23:54:13.830Z,98589.52
2022-10-23T23:56:41.468Z,98598.58
2022-10-23T23:59:08.871Z,98607.83
